sensor_id;sensor_type;location;lat;lon;timestamp;temperature;humidity
59162;DHT22;44942;48.936;8.260;2024-03-02T00:04:58;21.00;52.40
59162;DHT22;44942;48.936;8.260;2024-03-02T00:10:00;21.00;52.40
59162;DHT22;44942;48.936;8.260;2024-03-02T00:15:00;21.10;52.30
59162;DHT22;44942;48.936;8.260;2024-03-02T00:20:03;21.10;52.30
59162;DHT22;44942;48.936;8.260;2024-03-02T00:25:05;21.20;52.30
59162;DHT22;44942;48.936;8.260;2024-03-02T00:35:35;21.20;52.30
59162;DHT22;44942;48.936;8.260;2024-03-02T00:40:36;21.20;52.20
59162;DHT22;44942;48.936;8.260;2024-03-02T00:45:39;21.30;52.20
59162;DHT22;44942;48.936;8.260;2024-03-02T00:50:40;21.30;52.20
59162;DHT22;44942;48.936;8.260;2024-03-02T00:55:41;21.30;52.20
59162;DHT22;44942;48.936;8.260;2024-03-02T01:00:44;21.10;51.90
59162;DHT22;44942;48.936;8.260;2024-03-02T01:05:45;21.00;51.50
59162;DHT22;44942;48.936;8.260;2024-03-02T01:10:46;21.20;51.20
59162;DHT22;44942;48.936;8.260;2024-03-02T01:15:46;21.30;51.10
59162;DHT22;44942;48.936;8.260;2024-03-02T01:20:47;21.30;51.30
59162;DHT22;44942;48.936;8.260;2024-03-02T01:25:48;21.20;51.30
59162;DHT22;44942;48.936;8.260;2024-03-02T01:30:48;21.30;51.50
59162;DHT22;44942;48.936;8.260;2024-03-02T01:35:49;21.30;51.50
59162;DHT22;44942;48.936;8.260;2024-03-02T01:40:50;21.30;51.60
59162;DHT22;44942;48.936;8.260;2024-03-02T01:45:52;21.30;51.60
59162;DHT22;44942;48.936;8.260;2024-03-02T01:50:53;21.40;51.70
59162;DHT22;44942;48.936;8.260;2024-03-02T01:55:53;21.40;51.70
59162;DHT22;44942;48.936;8.260;2024-03-02T02:00:54;21.40;51.60
59162;DHT22;44942;48.936;8.260;2024-03-02T02:05:55;21.40;51.70
59162;DHT22;44942;48.936;8.260;2024-03-02T02:10:55;21.40;52.40
59162;DHT22;44942;48.936;8.260;2024-03-02T02:16:04;21.50;51.70
59162;DHT22;44942;48.936;8.260;2024-03-02T02:21:05;21.40;51.60
59162;DHT22;44942;48.936;8.260;2024-03-02T02:26:06;21.50;51.70
59162;DHT22;44942;48.936;8.260;2024-03-02T02:31:06;21.50;51.70
59162;DHT22;44942;48.936;8.260;2024-03-02T02:36:07;21.50;51.60
59162;DHT22;44942;48.936;8.260;2024-03-02T02:41:07;21.50;51.60
59162;DHT22;44942;48.936;8.260;2024-03-02T02:46:08;21.50;51.70
59162;DHT22;44942;48.936;8.260;2024-03-02T02:51:09;21.50;51.70
59162;DHT22;44942;48.936;8.260;2024-03-02T02:56:09;21.50;51.70
59162;DHT22;44942;48.936;8.260;2024-03-02T03:01:10;21.50;51.70
59162;DHT22;44942;48.936;8.260;2024-03-02T03:06:11;21.50;51.70
59162;DHT22;44942;48.936;8.260;2024-03-02T03:11:12;21.50;51.70
59162;DHT22;44942;48.936;8.260;2024-03-02T03:16:12;21.50;51.70
59162;DHT22;44942;48.936;8.260;2024-03-02T03:21:13;21.50;51.80
59162;DHT22;44942;48.936;8.260;2024-03-02T03:26:13;21.40;51.70
59162;DHT22;44942;48.936;8.260;2024-03-02T03:31:14;21.50;51.80
59162;DHT22;44942;48.936;8.260;2024-03-02T03:36:14;21.50;51.80
59162;DHT22;44942;48.936;8.260;2024-03-02T03:41:15;21.40;51.80
59162;DHT22;44942;48.936;8.260;2024-03-02T03:46:16;21.40;51.80
59162;DHT22;44942;48.936;8.260;2024-03-02T03:51:16;21.40;51.80
59162;DHT22;44942;48.936;8.260;2024-03-02T03:56:17;21.40;51.80
59162;DHT22;44942;48.936;8.260;2024-03-02T04:01:18;21.40;51.90
59162;DHT22;44942;48.936;8.260;2024-03-02T04:06:18;21.40;51.90
59162;DHT22;44942;48.936;8.260;2024-03-02T04:11:19;21.40;52.70
59162;DHT22;44942;48.936;8.260;2024-03-02T04:16:19;21.40;52.00
59162;DHT22;44942;48.936;8.260;2024-03-02T04:21:20;21.40;51.90
59162;DHT22;44942;48.936;8.260;2024-03-02T04:26:21;21.40;52.00
59162;DHT22;44942;48.936;8.260;2024-03-02T04:31:22;21.30;51.90
59162;DHT22;44942;48.936;8.260;2024-03-02T04:36:23;21.30;52.00
59162;DHT22;44942;48.936;8.260;2024-03-02T04:41:24;21.30;52.00
59162;DHT22;44942;48.936;8.260;2024-03-02T04:46:24;21.30;52.00
59162;DHT22;44942;48.936;8.260;2024-03-02T04:51:25;21.30;52.10
59162;DHT22;44942;48.936;8.260;2024-03-02T04:56:25;21.30;52.00
59162;DHT22;44942;48.936;8.260;2024-03-02T05:01:32;21.30;52.10
59162;DHT22;44942;48.936;8.260;2024-03-02T05:06:34;21.30;52.10
59162;DHT22;44942;48.936;8.260;2024-03-02T05:11:34;21.30;52.20
59162;DHT22;44942;48.936;8.260;2024-03-02T05:16:38;21.30;52.20
59162;DHT22;44942;48.936;8.260;2024-03-02T05:21:41;21.30;52.20
59162;DHT22;44942;48.936;8.260;2024-03-02T05:26:42;21.30;52.30
59162;DHT22;44942;48.936;8.260;2024-03-02T05:31:43;21.30;52.30
59162;DHT22;44942;48.936;8.260;2024-03-02T05:36:44;21.30;52.30
59162;DHT22;44942;48.936;8.260;2024-03-02T05:41:48;21.30;52.30
59162;DHT22;44942;48.936;8.260;2024-03-02T05:46:48;21.20;52.40
59162;DHT22;44942;48.936;8.260;2024-03-02T05:51:49;21.20;52.40
59162;DHT22;44942;48.936;8.260;2024-03-02T05:56:49;21.20;52.40
59162;DHT22;44942;48.936;8.260;2024-03-02T06:01:50;21.00;52.00
59162;DHT22;44942;48.936;8.260;2024-03-02T06:06:53;20.80;51.50
59162;DHT22;44942;48.936;8.260;2024-03-02T06:11:54;20.90;51.40
59162;DHT22;44942;48.936;8.260;2024-03-02T06:16:55;21.00;51.30
59162;DHT22;44942;48.936;8.260;2024-03-02T06:21:56;21.00;51.40
59162;DHT22;44942;48.936;8.260;2024-03-02T06:26:57;21.10;51.50
59162;DHT22;44942;48.936;8.260;2024-03-02T06:31:57;21.10;51.60
59162;DHT22;44942;48.936;8.260;2024-03-02T06:36:58;21.00;51.60
59162;DHT22;44942;48.936;8.260;2024-03-02T06:41:58;21.10;51.70
59162;DHT22;44942;48.936;8.260;2024-03-02T06:46:59;21.10;51.80
59162;DHT22;44942;48.936;8.260;2024-03-02T06:51:59;21.10;51.90
59162;DHT22;44942;48.936;8.260;2024-03-02T06:57:03;21.10;51.90
59162;DHT22;44942;48.936;8.260;2024-03-02T07:02:04;21.00;51.90
59162;DHT22;44942;48.936;8.260;2024-03-02T07:07:05;21.00;52.00
59162;DHT22;44942;48.936;8.260;2024-03-02T07:12:05;21.00;52.10
59162;DHT22;44942;48.936;8.260;2024-03-02T07:17:06;21.00;52.10
59162;DHT22;44942;48.936;8.260;2024-03-02T07:22:07;21.00;52.10
59162;DHT22;44942;48.936;8.260;2024-03-02T07:27:12;21.00;52.20
59162;DHT22;44942;48.936;8.260;2024-03-02T07:32:12;21.00;52.20
59162;DHT22;44942;48.936;8.260;2024-03-02T07:37:13;21.00;52.20
59162;DHT22;44942;48.936;8.260;2024-03-02T07:42:14;21.00;52.20
59162;DHT22;44942;48.936;8.260;2024-03-02T07:47:14;21.00;52.30
59162;DHT22;44942;48.936;8.260;2024-03-02T07:52:15;21.00;52.40
59162;DHT22;44942;48.936;8.260;2024-03-02T07:57:16;21.00;52.40
59162;DHT22;44942;48.936;8.260;2024-03-02T08:02:16;21.00;52.40
59162;DHT22;44942;48.936;8.260;2024-03-02T08:07:17;21.00;52.50
59162;DHT22;44942;48.936;8.260;2024-03-02T08:12:18;20.90;52.60
59162;DHT22;44942;48.936;8.260;2024-03-02T08:17:20;21.00;52.70
59162;DHT22;44942;48.936;8.260;2024-03-02T08:22:20;20.90;52.70
59162;DHT22;44942;48.936;8.260;2024-03-02T08:27:21;20.90;52.70
59162;DHT22;44942;48.936;8.260;2024-03-02T08:32:21;20.90;52.70
59162;DHT22;44942;48.936;8.260;2024-03-02T08:37:22;20.90;52.70
59162;DHT22;44942;48.936;8.260;2024-03-02T08:42:24;20.90;52.60
59162;DHT22;44942;48.936;8.260;2024-03-02T08:47:24;20.90;52.40
59162;DHT22;44942;48.936;8.260;2024-03-02T08:52:25;20.90;52.30
59162;DHT22;44942;48.936;8.260;2024-03-02T08:57:25;20.90;52.30
59162;DHT22;44942;48.936;8.260;2024-03-02T09:02:26;20.90;52.30
59162;DHT22;44942;48.936;8.260;2024-03-02T09:07:27;20.90;52.40
59162;DHT22;44942;48.936;8.260;2024-03-02T09:12:27;21.00;52.40
59162;DHT22;44942;48.936;8.260;2024-03-02T09:17:28;20.90;52.50
59162;DHT22;44942;48.936;8.260;2024-03-02T09:22:32;20.90;52.50
59162;DHT22;44942;48.936;8.260;2024-03-02T09:27:33;20.90;52.60
59162;DHT22;44942;48.936;8.260;2024-03-02T09:32:33;20.90;52.60
59162;DHT22;44942;48.936;8.260;2024-03-02T09:37:34;20.90;52.70
59162;DHT22;44942;48.936;8.260;2024-03-02T09:42:35;20.90;52.70
59162;DHT22;44942;48.936;8.260;2024-03-02T09:47:36;21.00;52.90
59162;DHT22;44942;48.936;8.260;2024-03-02T09:52:40;21.00;52.90
59162;DHT22;44942;48.936;8.260;2024-03-02T09:57:42;20.90;52.90
59162;DHT22;44942;48.936;8.260;2024-03-02T10:02:42;20.80;52.70
59162;DHT22;44942;48.936;8.260;2024-03-02T10:08:00;20.70;52.40
59162;DHT22;44942;48.936;8.260;2024-03-02T10:13:04;20.80;52.40
59162;DHT22;44942;48.936;8.260;2024-03-02T10:18:12;20.80;52.40
59162;DHT22;44942;48.936;8.260;2024-03-02T10:23:15;20.80;52.40
59162;DHT22;44942;48.936;8.260;2024-03-02T10:28:16;20.80;52.30
59162;DHT22;44942;48.936;8.260;2024-03-02T10:33:18;20.90;52.40
59162;DHT22;44942;48.936;8.260;2024-03-02T10:38:19;20.90;52.40
59162;DHT22;44942;48.936;8.260;2024-03-02T10:43:21;20.80;52.50
59162;DHT22;44942;48.936;8.260;2024-03-02T10:48:22;20.90;52.50
59162;DHT22;44942;48.936;8.260;2024-03-02T10:53:23;20.90;52.60
59162;DHT22;44942;48.936;8.260;2024-03-02T10:58:25;20.90;52.60
59162;DHT22;44942;48.936;8.260;2024-03-02T11:03:30;20.90;52.70
59162;DHT22;44942;48.936;8.260;2024-03-02T11:08:38;20.90;52.70
59162;DHT22;44942;48.936;8.260;2024-03-02T11:13:42;20.90;52.90
59162;DHT22;44942;48.936;8.260;2024-03-02T11:18:47;20.90;52.90
59162;DHT22;44942;48.936;8.260;2024-03-02T11:23:50;20.80;52.90
59162;DHT22;44942;48.936;8.260;2024-03-02T11:28:50;20.90;53.00
59162;DHT22;44942;48.936;8.260;2024-03-02T11:33:51;20.90;53.10
59162;DHT22;44942;48.936;8.260;2024-03-02T11:38:52;20.80;53.20
59162;DHT22;44942;48.936;8.260;2024-03-02T11:43:54;20.80;53.20
59162;DHT22;44942;48.936;8.260;2024-03-02T11:48:54;20.80;53.20
59162;DHT22;44942;48.936;8.260;2024-03-02T11:53:55;20.80;53.10
59162;DHT22;44942;48.936;8.260;2024-03-02T11:58:56;20.90;53.20
59162;DHT22;44942;48.936;8.260;2024-03-02T12:03:58;20.80;53.20
59162;DHT22;44942;48.936;8.260;2024-03-02T12:09:00;20.80;53.20
59162;DHT22;44942;48.936;8.260;2024-03-02T12:14:00;20.90;53.20
59162;DHT22;44942;48.936;8.260;2024-03-02T12:19:01;20.80;53.10
59162;DHT22;44942;48.936;8.260;2024-03-02T12:24:02;20.90;53.10
59162;DHT22;44942;48.936;8.260;2024-03-02T12:29:03;20.80;53.00
59162;DHT22;44942;48.936;8.260;2024-03-02T12:34:04;20.80;53.00
59162;DHT22;44942;48.936;8.260;2024-03-02T12:39:04;20.80;53.00
59162;DHT22;44942;48.936;8.260;2024-03-02T12:44:06;20.80;52.90
59162;DHT22;44942;48.936;8.260;2024-03-02T12:49:10;20.80;52.80
59162;DHT22;44942;48.936;8.260;2024-03-02T12:54:11;20.90;52.90
59162;DHT22;44942;48.936;8.260;2024-03-02T12:59:18;20.80;52.70
59162;DHT22;44942;48.936;8.260;2024-03-02T13:04:26;20.80;52.80
59162;DHT22;44942;48.936;8.260;2024-03-02T13:09:28;20.80;52.70
59162;DHT22;44942;48.936;8.260;2024-03-02T13:14:35;20.80;52.60
59162;DHT22;44942;48.936;8.260;2024-03-02T13:19:36;20.80;52.70
59162;DHT22;44942;48.936;8.260;2024-03-02T13:24:36;20.80;52.60
59162;DHT22;44942;48.936;8.260;2024-03-02T13:29:37;20.80;52.50
59162;DHT22;44942;48.936;8.260;2024-03-02T13:34:37;20.80;52.50
59162;DHT22;44942;48.936;8.260;2024-03-02T13:39:38;20.80;52.60
59162;DHT22;44942;48.936;8.260;2024-03-02T13:44:45;20.80;52.50
59162;DHT22;44942;48.936;8.260;2024-03-02T13:49:48;20.80;52.60
59162;DHT22;44942;48.936;8.260;2024-03-02T13:54:49;20.80;52.50
59162;DHT22;44942;48.936;8.260;2024-03-02T13:59:52;20.80;52.60
59162;DHT22;44942;48.936;8.260;2024-03-02T14:04:53;20.80;52.60
59162;DHT22;44942;48.936;8.260;2024-03-02T14:09:54;20.80;52.30
59162;DHT22;44942;48.936;8.260;2024-03-02T14:14:54;20.80;51.70
59162;DHT22;44942;48.936;8.260;2024-03-02T14:19:58;20.70;51.10
59162;DHT22;44942;48.936;8.260;2024-03-02T14:25:02;20.70;51.00
59162;DHT22;44942;48.936;8.260;2024-03-02T14:30:02;20.70;50.80
59162;DHT22;44942;48.936;8.260;2024-03-02T14:35:03;20.70;50.70
59162;DHT22;44942;48.936;8.260;2024-03-02T14:40:04;20.70;50.60
59162;DHT22;44942;48.936;8.260;2024-03-02T14:45:06;20.70;50.60
59162;DHT22;44942;48.936;8.260;2024-03-02T14:50:07;20.70;50.60
59162;DHT22;44942;48.936;8.260;2024-03-02T14:55:10;20.70;50.60
59162;DHT22;44942;48.936;8.260;2024-03-02T15:00:11;20.70;50.60
59162;DHT22;44942;48.936;8.260;2024-03-02T15:05:11;20.70;50.70
59162;DHT22;44942;48.936;8.260;2024-03-02T15:10:12;20.70;50.70
59162;DHT22;44942;48.936;8.260;2024-03-02T15:15:12;20.70;50.80
59162;DHT22;44942;48.936;8.260;2024-03-02T15:20:13;20.70;50.80
59162;DHT22;44942;48.936;8.260;2024-03-02T15:25:14;20.70;50.80
59162;DHT22;44942;48.936;8.260;2024-03-02T15:30:16;20.70;50.80
59162;DHT22;44942;48.936;8.260;2024-03-02T15:35:17;20.70;50.80
59162;DHT22;44942;48.936;8.260;2024-03-02T15:40:17;20.60;50.80
59162;DHT22;44942;48.936;8.260;2024-03-02T15:45:18;20.70;50.80
59162;DHT22;44942;48.936;8.260;2024-03-02T15:50:19;20.70;50.90
59162;DHT22;44942;48.936;8.260;2024-03-02T15:55:19;20.60;50.90
59162;DHT22;44942;48.936;8.260;2024-03-02T16:00:20;20.60;51.00
59162;DHT22;44942;48.936;8.260;2024-03-02T16:05:22;20.60;51.00
59162;DHT22;44942;48.936;8.260;2024-03-02T16:10:22;20.60;51.00
59162;DHT22;44942;48.936;8.260;2024-03-02T16:15:24;20.60;51.00
59162;DHT22;44942;48.936;8.260;2024-03-02T16:20:25;20.60;51.10
59162;DHT22;44942;48.936;8.260;2024-03-02T16:25:25;20.60;51.10
59162;DHT22;44942;48.936;8.260;2024-03-02T16:30:26;20.60;51.20
59162;DHT22;44942;48.936;8.260;2024-03-02T16:35:27;20.60;51.20
59162;DHT22;44942;48.936;8.260;2024-03-02T16:40:27;20.60;51.30
59162;DHT22;44942;48.936;8.260;2024-03-02T16:45:28;20.60;51.50
59162;DHT22;44942;48.936;8.260;2024-03-02T16:50:30;20.60;51.60
59162;DHT22;44942;48.936;8.260;2024-03-02T16:55:31;20.60;51.70
59162;DHT22;44942;48.936;8.260;2024-03-02T17:00:31;20.60;51.70
59162;DHT22;44942;48.936;8.260;2024-03-02T17:05:32;20.60;51.90
59162;DHT22;44942;48.936;8.260;2024-03-02T17:10:32;20.50;51.80
59162;DHT22;44942;48.936;8.260;2024-03-02T17:15:33;20.40;51.70
59162;DHT22;44942;48.936;8.260;2024-03-02T17:20:34;20.40;51.70
59162;DHT22;44942;48.936;8.260;2024-03-02T17:25:34;20.50;52.00
59162;DHT22;44942;48.936;8.260;2024-03-02T17:30:35;20.50;52.20
59162;DHT22;44942;48.936;8.260;2024-03-02T17:35:35;20.60;52.40
59162;DHT22;44942;48.936;8.260;2024-03-02T17:40:36;20.50;52.60
59162;DHT22;44942;48.936;8.260;2024-03-02T17:45:37;20.60;52.70
59162;DHT22;44942;48.936;8.260;2024-03-02T17:50:38;20.50;52.70
59162;DHT22;44942;48.936;8.260;2024-03-02T17:55:38;20.60;52.80
59162;DHT22;44942;48.936;8.260;2024-03-02T18:00:39;20.60;52.90
59162;DHT22;44942;48.936;8.260;2024-03-02T18:05:41;20.60;53.00
59162;DHT22;44942;48.936;8.260;2024-03-02T18:10:41;20.60;53.00
59162;DHT22;44942;48.936;8.260;2024-03-02T18:15:42;20.60;53.10
59162;DHT22;44942;48.936;8.260;2024-03-02T18:20:43;20.60;53.10
59162;DHT22;44942;48.936;8.260;2024-03-02T18:25:44;20.60;53.10
59162;DHT22;44942;48.936;8.260;2024-03-02T18:30:47;20.60;53.20
59162;DHT22;44942;48.936;8.260;2024-03-02T18:35:48;20.60;53.20
59162;DHT22;44942;48.936;8.260;2024-03-02T18:40:48;20.60;53.20
59162;DHT22;44942;48.936;8.260;2024-03-02T18:45:49;20.60;53.40
59162;DHT22;44942;48.936;8.260;2024-03-02T18:50:50;20.60;53.40
59162;DHT22;44942;48.936;8.260;2024-03-02T18:55:50;20.60;53.50
59162;DHT22;44942;48.936;8.260;2024-03-02T19:00:51;20.60;53.50
59162;DHT22;44942;48.936;8.260;2024-03-02T19:05:51;20.70;53.60
59162;DHT22;44942;48.936;8.260;2024-03-02T19:10:52;20.60;53.60
59162;DHT22;44942;48.936;8.260;2024-03-02T19:15:53;20.60;53.70
59162;DHT22;44942;48.936;8.260;2024-03-02T19:20:54;20.60;53.80
59162;DHT22;44942;48.936;8.260;2024-03-02T19:25:55;20.60;53.90
59162;DHT22;44942;48.936;8.260;2024-03-02T19:30:57;20.60;54.00
59162;DHT22;44942;48.936;8.260;2024-03-02T19:35:57;20.70;54.20
59162;DHT22;44942;48.936;8.260;2024-03-02T19:40:58;20.60;54.30
59162;DHT22;44942;48.936;8.260;2024-03-02T19:45:58;20.60;54.40
59162;DHT22;44942;48.936;8.260;2024-03-02T19:50:59;20.60;54.70
59162;DHT22;44942;48.936;8.260;2024-03-02T19:55:59;20.60;54.90
59162;DHT22;44942;48.936;8.260;2024-03-02T20:01:00;20.50;54.80
59162;DHT22;44942;48.936;8.260;2024-03-02T20:06:00;20.50;54.60
59162;DHT22;44942;48.936;8.260;2024-03-02T20:11:04;20.50;54.60
59162;DHT22;44942;48.936;8.260;2024-03-02T20:16:08;20.60;55.10
59162;DHT22;44942;48.936;8.260;2024-03-02T20:21:09;20.60;55.60
59162;DHT22;44942;48.936;8.260;2024-03-02T20:26:09;20.60;55.70
59162;DHT22;44942;48.936;8.260;2024-03-02T20:31:10;20.60;55.80
59162;DHT22;44942;48.936;8.260;2024-03-02T20:36:12;20.60;56.00
59162;DHT22;44942;48.936;8.260;2024-03-02T20:41:15;20.60;56.20
59162;DHT22;44942;48.936;8.260;2024-03-02T20:46:16;20.70;56.40
59162;DHT22;44942;48.936;8.260;2024-03-02T20:51:16;20.60;56.50
59162;DHT22;44942;48.936;8.260;2024-03-02T20:56:17;20.60;56.70
59162;DHT22;44942;48.936;8.260;2024-03-02T21:01:18;20.60;56.90
59162;DHT22;44942;48.936;8.260;2024-03-02T21:06:18;20.60;57.00
59162;DHT22;44942;48.936;8.260;2024-03-02T21:11:19;20.70;57.20
59162;DHT22;44942;48.936;8.260;2024-03-02T21:16:22;20.70;57.40
59162;DHT22;44942;48.936;8.260;2024-03-02T21:21:22;20.70;57.60
59162;DHT22;44942;48.936;8.260;2024-03-02T21:26:23;20.60;57.70
59162;DHT22;44942;48.936;8.260;2024-03-02T21:31:24;20.70;57.90
59162;DHT22;44942;48.936;8.260;2024-03-02T21:36:24;20.70;58.00
59162;DHT22;44942;48.936;8.260;2024-03-02T21:41:25;20.70;58.20
59162;DHT22;44942;48.936;8.260;2024-03-02T21:46:25;20.70;58.50
59162;DHT22;44942;48.936;8.260;2024-03-02T21:51:26;20.70;58.90
59162;DHT22;44942;48.936;8.260;2024-03-02T21:56:27;20.70;59.20
59162;DHT22;44942;48.936;8.260;2024-03-02T22:01:28;20.60;58.90
59162;DHT22;44942;48.936;8.260;2024-03-02T22:06:28;20.60;58.50
59162;DHT22;44942;48.936;8.260;2024-03-02T22:11:29;20.70;58.40
59162;DHT22;44942;48.936;8.260;2024-03-02T22:16:29;20.70;58.40
59162;DHT22;44942;48.936;8.260;2024-03-02T22:21:30;20.70;58.60
59162;DHT22;44942;48.936;8.260;2024-03-02T22:26:31;20.70;58.70
59162;DHT22;44942;48.936;8.260;2024-03-02T22:31:31;20.70;58.80
59162;DHT22;44942;48.936;8.260;2024-03-02T22:36:32;20.70;58.80
59162;DHT22;44942;48.936;8.260;2024-03-02T22:41:32;20.70;58.80
59162;DHT22;44942;48.936;8.260;2024-03-02T22:46:33;20.80;58.80
59162;DHT22;44942;48.936;8.260;2024-03-02T22:51:34;20.80;58.80
59162;DHT22;44942;48.936;8.260;2024-03-02T22:56:34;20.80;58.80
59162;DHT22;44942;48.936;8.260;2024-03-02T23:01:35;20.70;58.40
59162;DHT22;44942;48.936;8.260;2024-03-02T23:06:36;20.60;57.90
59162;DHT22;44942;48.936;8.260;2024-03-02T23:11:37;20.70;57.80
59162;DHT22;44942;48.936;8.260;2024-03-02T23:16:37;20.70;57.70
59162;DHT22;44942;48.936;8.260;2024-03-02T23:21:46;20.70;57.80
59162;DHT22;44942;48.936;8.260;2024-03-02T23:26:47;20.70;57.80
59162;DHT22;44942;48.936;8.260;2024-03-02T23:31:47;20.80;58.00
59162;DHT22;44942;48.936;8.260;2024-03-02T23:36:48;20.80;58.10
59162;DHT22;44942;48.936;8.260;2024-03-02T23:41:49;20.80;58.10
59162;DHT22;44942;48.936;8.260;2024-03-02T23:46:49;20.80;58.10
59162;DHT22;44942;48.936;8.260;2024-03-02T23:51:50;20.80;58.20
59162;DHT22;44942;48.936;8.260;2024-03-02T23:56:50;20.80;58.10
